sensor_id;sensor_type;location;lat;lon;timestamp;P1;durP1;ratioP1;P2;durP2;ratioP2
6017;SDS011;3037;51.068;13.780;2023-12-20T00:01:18;4.03;;;3.23;;
6017;SDS011;3037;51.068;13.780;2023-12-20T00:03:44;3.43;;;3.13;;
6017;SDS011;3037;51.068;13.780;2023-12-20T00:06:09;4.10;;;3.80;;
6017;SDS011;3037;51.068;13.780;2023-12-20T00:08:35;2.77;;;2.67;;
6017;SDS011;3037;51.068;13.780;2023-12-20T00:11:01;2.93;;;2.73;;
6017;SDS011;3037;51.068;13.780;2023-12-20T00:13:26;4.83;;;3.33;;
6017;SDS011;3037;51.068;13.780;2023-12-20T00:15:52;3.47;;;3.27;;
6017;SDS011;3037;51.068;13.780;2023-12-20T00:18:18;4.20;;;3.57;;
6017;SDS011;3037;51.068;13.780;2023-12-20T00:20:43;3.40;;;3.20;;
6017;SDS011;3037;51.068;13.780;2023-12-20T00:23:09;3.60;;;3.30;;
6017;SDS011;3037;51.068;13.780;2023-12-20T00:25:34;3.13;;;3.00;;
6017;SDS011;3037;51.068;13.780;2023-12-20T00:28:00;3.03;;;2.83;;
6017;SDS011;3037;51.068;13.780;2023-12-20T00:30:26;3.00;;;2.80;;
6017;SDS011;3037;51.068;13.780;2023-12-20T00:32:51;3.27;;;3.07;;
6017;SDS011;3037;51.068;13.780;2023-12-20T00:35:17;2.97;;;2.77;;
6017;SDS011;3037;51.068;13.780;2023-12-20T00:37:42;3.83;;;3.53;;
6017;SDS011;3037;51.068;13.780;2023-12-20T00:40:08;4.17;;;2.60;;
6017;SDS011;3037;51.068;13.780;2023-12-20T00:42:34;2.50;;;2.40;;
6017;SDS011;3037;51.068;13.780;2023-12-20T00:45:01;2.50;;;2.40;;
6017;SDS011;3037;51.068;13.780;2023-12-20T00:47:27;2.30;;;2.20;;
6017;SDS011;3037;51.068;13.780;2023-12-20T00:49:52;2.13;;;2.03;;
6017;SDS011;3037;51.068;13.780;2023-12-20T00:52:18;2.20;;;2.10;;
6017;SDS011;3037;51.068;13.780;2023-12-20T00:54:44;4.60;;;2.33;;
6017;SDS011;3037;51.068;13.780;2023-12-20T00:57:09;2.60;;;2.40;;
6017;SDS011;3037;51.068;13.780;2023-12-20T00:59:35;3.30;;;3.00;;
6017;SDS011;3037;51.068;13.780;2023-12-20T01:02:00;2.40;;;2.30;;
6017;SDS011;3037;51.068;13.780;2023-12-20T01:04:26;2.40;;;2.30;;
6017;SDS011;3037;51.068;13.780;2023-12-20T01:06:52;1.93;;;1.83;;
6017;SDS011;3037;51.068;13.780;2023-12-20T01:09:17;2.00;;;1.90;;
6017;SDS011;3037;51.068;13.780;2023-12-20T01:11:43;2.20;;;2.10;;
6017;SDS011;3037;51.068;13.780;2023-12-20T01:14:09;2.67;;;2.47;;
6017;SDS011;3037;51.068;13.780;2023-12-20T01:16:34;2.30;;;2.20;;
6017;SDS011;3037;51.068;13.780;2023-12-20T01:19:00;2.80;;;2.17;;
6017;SDS011;3037;51.068;13.780;2023-12-20T01:21:25;2.00;;;1.57;;
6017;SDS011;3037;51.068;13.780;2023-12-20T01:23:51;1.87;;;1.87;;
6017;SDS011;3037;51.068;13.780;2023-12-20T01:26:16;1.87;;;1.70;;
6017;SDS011;3037;51.068;13.780;2023-12-20T01:28:42;2.07;;;2.07;;
6017;SDS011;3037;51.068;13.780;2023-12-20T01:31:08;2.00;;;1.90;;
6017;SDS011;3037;51.068;13.780;2023-12-20T01:33:34;2.03;;;1.90;;
6017;SDS011;3037;51.068;13.780;2023-12-20T01:35:59;1.50;;;1.40;;
6017;SDS011;3037;51.068;13.780;2023-12-20T01:38:25;2.20;;;2.10;;
6017;SDS011;3037;51.068;13.780;2023-12-20T01:40:50;1.70;;;1.60;;
6017;SDS011;3037;51.068;13.780;2023-12-20T01:43:16;1.97;;;1.77;;
6017;SDS011;3037;51.068;13.780;2023-12-20T01:45:41;2.20;;;1.80;;
6017;SDS011;3037;51.068;13.780;2023-12-20T01:48:07;2.00;;;1.83;;
6017;SDS011;3037;51.068;13.780;2023-12-20T01:50:33;1.87;;;1.77;;
6017;SDS011;3037;51.068;13.780;2023-12-20T01:53:01;1.80;;;1.70;;
6017;SDS011;3037;51.068;13.780;2023-12-20T01:55:27;1.53;;;1.50;;
6017;SDS011;3037;51.068;13.780;2023-12-20T01:57:57;1.17;;;1.17;;
6017;SDS011;3037;51.068;13.780;2023-12-20T02:00:24;1.80;;;1.70;;
6017;SDS011;3037;51.068;13.780;2023-12-20T02:02:55;1.80;;;1.70;;
6017;SDS011;3037;51.068;13.780;2023-12-20T02:05:21;1.40;;;1.40;;
6017;SDS011;3037;51.068;13.780;2023-12-20T02:07:47;1.00;;;1.00;;
6017;SDS011;3037;51.068;13.780;2023-12-20T02:10:13;1.70;;;1.60;;
6017;SDS011;3037;51.068;13.780;2023-12-20T02:12:38;1.13;;;1.13;;
6017;SDS011;3037;51.068;13.780;2023-12-20T02:15:05;4.10;;;1.30;;
6017;SDS011;3037;51.068;13.780;2023-12-20T02:17:31;1.30;;;1.23;;
6017;SDS011;3037;51.068;13.780;2023-12-20T02:19:57;1.53;;;1.53;;
6017;SDS011;3037;51.068;13.780;2023-12-20T02:22:22;1.07;;;1.07;;
6017;SDS011;3037;51.068;13.780;2023-12-20T02:24:48;1.10;;;1.10;;
6017;SDS011;3037;51.068;13.780;2023-12-20T02:27:13;1.10;;;0.90;;
6017;SDS011;3037;51.068;13.780;2023-12-20T02:29:42;1.70;;;1.67;;
6017;SDS011;3037;51.068;13.780;2023-12-20T02:32:08;1.30;;;1.20;;
6017;SDS011;3037;51.068;13.780;2023-12-20T02:34:33;1.50;;;1.50;;
6017;SDS011;3037;51.068;13.780;2023-12-20T02:36:59;1.47;;;1.47;;
6017;SDS011;3037;51.068;13.780;2023-12-20T02:39:24;1.07;;;1.07;;
6017;SDS011;3037;51.068;13.780;2023-12-20T02:41:50;1.20;;;1.20;;
6017;SDS011;3037;51.068;13.780;2023-12-20T02:44:15;1.23;;;1.23;;
6017;SDS011;3037;51.068;13.780;2023-12-20T02:46:41;1.03;;;1.03;;
6017;SDS011;3037;51.068;13.780;2023-12-20T02:49:07;1.10;;;1.10;;
6017;SDS011;3037;51.068;13.780;2023-12-20T02:51:32;1.03;;;1.03;;
6017;SDS011;3037;51.068;13.780;2023-12-20T02:53:57;1.20;;;1.20;;
6017;SDS011;3037;51.068;13.780;2023-12-20T02:56:23;1.10;;;1.10;;
6017;SDS011;3037;51.068;13.780;2023-12-20T02:58:48;4.10;;;1.10;;
6017;SDS011;3037;51.068;13.780;2023-12-20T03:01:14;0.90;;;0.90;;
6017;SDS011;3037;51.068;13.780;2023-12-20T03:03:39;1.17;;;1.17;;
6017;SDS011;3037;51.068;13.780;2023-12-20T03:06:05;1.07;;;1.07;;
6017;SDS011;3037;51.068;13.780;2023-12-20T03:08:30;1.03;;;1.03;;
6017;SDS011;3037;51.068;13.780;2023-12-20T03:10:56;0.80;;;0.80;;
6017;SDS011;3037;51.068;13.780;2023-12-20T03:13:21;1.53;;;1.53;;
6017;SDS011;3037;51.068;13.780;2023-12-20T03:15:47;1.00;;;1.00;;
6017;SDS011;3037;51.068;13.780;2023-12-20T03:18:12;1.30;;;1.30;;
6017;SDS011;3037;51.068;13.780;2023-12-20T03:20:38;1.63;;;1.20;;
6017;SDS011;3037;51.068;13.780;2023-12-20T03:23:03;1.10;;;1.10;;
6017;SDS011;3037;51.068;13.780;2023-12-20T03:25:29;1.20;;;1.20;;
6017;SDS011;3037;51.068;13.780;2023-12-20T03:27:54;0.87;;;0.87;;
6017;SDS011;3037;51.068;13.780;2023-12-20T03:30:20;1.10;;;1.10;;
6017;SDS011;3037;51.068;13.780;2023-12-20T03:32:46;1.00;;;1.00;;
6017;SDS011;3037;51.068;13.780;2023-12-20T03:35:12;2.20;;;1.20;;
6017;SDS011;3037;51.068;13.780;2023-12-20T03:37:37;0.90;;;0.90;;
6017;SDS011;3037;51.068;13.780;2023-12-20T03:40:03;1.27;;;1.13;;
6017;SDS011;3037;51.068;13.780;2023-12-20T03:42:29;1.40;;;1.40;;
6017;SDS011;3037;51.068;13.780;2023-12-20T03:44:54;0.90;;;0.90;;
6017;SDS011;3037;51.068;13.780;2023-12-20T03:47:20;1.00;;;1.00;;
6017;SDS011;3037;51.068;13.780;2023-12-20T03:49:45;0.70;;;0.70;;
6017;SDS011;3037;51.068;13.780;2023-12-20T03:52:11;1.00;;;1.00;;
6017;SDS011;3037;51.068;13.780;2023-12-20T03:54:37;0.67;;;0.67;;
6017;SDS011;3037;51.068;13.780;2023-12-20T03:57:02;1.03;;;0.90;;
6017;SDS011;3037;51.068;13.780;2023-12-20T03:59:28;0.90;;;0.90;;
6017;SDS011;3037;51.068;13.780;2023-12-20T04:01:54;1.20;;;1.00;;
6017;SDS011;3037;51.068;13.780;2023-12-20T04:04:19;0.70;;;0.70;;
6017;SDS011;3037;51.068;13.780;2023-12-20T04:06:45;1.03;;;1.03;;
6017;SDS011;3037;51.068;13.780;2023-12-20T04:09:10;0.80;;;0.80;;
6017;SDS011;3037;51.068;13.780;2023-12-20T04:11:36;0.90;;;0.90;;
6017;SDS011;3037;51.068;13.780;2023-12-20T04:14:02;0.90;;;0.90;;
6017;SDS011;3037;51.068;13.780;2023-12-20T04:16:29;2.30;;;0.90;;
6017;SDS011;3037;51.068;13.780;2023-12-20T04:18:55;0.97;;;0.80;;
6017;SDS011;3037;51.068;13.780;2023-12-20T04:21:20;1.13;;;1.03;;
6017;SDS011;3037;51.068;13.780;2023-12-20T04:23:46;0.93;;;0.93;;
6017;SDS011;3037;51.068;13.780;2023-12-20T04:26:11;0.80;;;0.80;;
6017;SDS011;3037;51.068;13.780;2023-12-20T04:28:37;0.80;;;0.80;;
6017;SDS011;3037;51.068;13.780;2023-12-20T04:31:02;0.80;;;0.80;;
6017;SDS011;3037;51.068;13.780;2023-12-20T04:33:28;1.10;;;1.10;;
6017;SDS011;3037;51.068;13.780;2023-12-20T04:35:54;0.90;;;0.90;;
6017;SDS011;3037;51.068;13.780;2023-12-20T04:38:19;0.87;;;0.87;;
6017;SDS011;3037;51.068;13.780;2023-12-20T04:40:44;0.80;;;0.80;;
6017;SDS011;3037;51.068;13.780;2023-12-20T04:43:10;1.13;;;1.13;;
6017;SDS011;3037;51.068;13.780;2023-12-20T04:45:35;0.83;;;0.83;;
6017;SDS011;3037;51.068;13.780;2023-12-20T04:48:01;1.07;;;1.07;;
6017;SDS011;3037;51.068;13.780;2023-12-20T04:50:27;1.70;;;1.20;;
6017;SDS011;3037;51.068;13.780;2023-12-20T04:52:53;1.00;;;1.00;;
6017;SDS011;3037;51.068;13.780;2023-12-20T04:55:19;1.00;;;1.00;;
6017;SDS011;3037;51.068;13.780;2023-12-20T04:57:45;3.33;;;1.70;;
6017;SDS011;3037;51.068;13.780;2023-12-20T05:00:11;0.87;;;0.87;;
6017;SDS011;3037;51.068;13.780;2023-12-20T05:02:37;1.63;;;1.53;;
6017;SDS011;3037;51.068;13.780;2023-12-20T05:05:02;1.63;;;1.10;;
6017;SDS011;3037;51.068;13.780;2023-12-20T05:07:28;1.03;;;1.03;;
6017;SDS011;3037;51.068;13.780;2023-12-20T05:09:54;1.00;;;1.00;;
6017;SDS011;3037;51.068;13.780;2023-12-20T05:12:19;1.63;;;1.20;;
6017;SDS011;3037;51.068;13.780;2023-12-20T05:14:45;1.40;;;1.40;;
6017;SDS011;3037;51.068;13.780;2023-12-20T05:17:11;0.83;;;0.83;;
6017;SDS011;3037;51.068;13.780;2023-12-20T05:19:36;1.10;;;1.10;;
6017;SDS011;3037;51.068;13.780;2023-12-20T05:22:02;1.00;;;1.00;;
6017;SDS011;3037;51.068;13.780;2023-12-20T05:24:28;1.67;;;1.17;;
6017;SDS011;3037;51.068;13.780;2023-12-20T05:26:54;1.10;;;1.10;;
6017;SDS011;3037;51.068;13.780;2023-12-20T05:29:19;1.13;;;1.13;;
6017;SDS011;3037;51.068;13.780;2023-12-20T05:31:45;0.83;;;0.83;;
6017;SDS011;3037;51.068;13.780;2023-12-20T05:34:11;1.10;;;1.00;;
6017;SDS011;3037;51.068;13.780;2023-12-20T05:36:37;1.30;;;1.30;;
6017;SDS011;3037;51.068;13.780;2023-12-20T05:39:03;1.17;;;1.17;;
6017;SDS011;3037;51.068;13.780;2023-12-20T05:41:29;2.30;;;1.30;;
6017;SDS011;3037;51.068;13.780;2023-12-20T05:43:55;1.03;;;1.03;;
6017;SDS011;3037;51.068;13.780;2023-12-20T05:46:22;2.30;;;1.20;;
6017;SDS011;3037;51.068;13.780;2023-12-20T05:48:48;1.07;;;1.07;;
6017;SDS011;3037;51.068;13.780;2023-12-20T05:51:14;1.60;;;1.40;;
6017;SDS011;3037;51.068;13.780;2023-12-20T05:53:39;8.77;;;1.13;;
6017;SDS011;3037;51.068;13.780;2023-12-20T05:56:05;2.20;;;0.90;;
6017;SDS011;3037;51.068;13.780;2023-12-20T05:58:31;1.33;;;1.33;;
6017;SDS011;3037;51.068;13.780;2023-12-20T06:00:57;1.30;;;1.30;;
6017;SDS011;3037;51.068;13.780;2023-12-20T06:03:23;1.10;;;1.10;;
6017;SDS011;3037;51.068;13.780;2023-12-20T06:05:48;1.37;;;1.27;;
6017;SDS011;3037;51.068;13.780;2023-12-20T06:08:14;1.20;;;1.20;;
6017;SDS011;3037;51.068;13.780;2023-12-20T06:10:39;1.13;;;1.10;;
6017;SDS011;3037;51.068;13.780;2023-12-20T06:13:05;1.83;;;1.50;;
6017;SDS011;3037;51.068;13.780;2023-12-20T06:15:31;1.40;;;1.40;;
6017;SDS011;3037;51.068;13.780;2023-12-20T06:17:57;1.70;;;1.60;;
6017;SDS011;3037;51.068;13.780;2023-12-20T06:20:23;1.10;;;1.10;;
6017;SDS011;3037;51.068;13.780;2023-12-20T06:22:48;1.87;;;1.30;;
6017;SDS011;3037;51.068;13.780;2023-12-20T06:25:14;2.30;;;1.40;;
6017;SDS011;3037;51.068;13.780;2023-12-20T06:27:39;11.53;;;6.67;;
6017;SDS011;3037;51.068;13.780;2023-12-20T06:30:06;8.20;;;4.70;;
6017;SDS011;3037;51.068;13.780;2023-12-20T06:32:32;2.37;;;2.20;;
6017;SDS011;3037;51.068;13.780;2023-12-20T06:34:59;1.80;;;1.70;;
6017;SDS011;3037;51.068;13.780;2023-12-20T06:37:24;1.60;;;1.30;;
6017;SDS011;3037;51.068;13.780;2023-12-20T06:39:50;3.77;;;1.40;;
6017;SDS011;3037;51.068;13.780;2023-12-20T06:42:15;1.50;;;1.50;;
6017;SDS011;3037;51.068;13.780;2023-12-20T06:44:41;1.80;;;1.23;;
6017;SDS011;3037;51.068;13.780;2023-12-20T06:47:06;1.37;;;1.27;;
6017;SDS011;3037;51.068;13.780;2023-12-20T06:49:32;1.93;;;1.80;;
6017;SDS011;3037;51.068;13.780;2023-12-20T06:51:57;1.60;;;1.60;;
6017;SDS011;3037;51.068;13.780;2023-12-20T06:54:23;2.30;;;1.70;;
6017;SDS011;3037;51.068;13.780;2023-12-20T06:56:48;2.40;;;2.20;;
6017;SDS011;3037;51.068;13.780;2023-12-20T06:59:14;2.30;;;2.20;;
6017;SDS011;3037;51.068;13.780;2023-12-20T07:01:40;2.47;;;2.03;;
6017;SDS011;3037;51.068;13.780;2023-12-20T07:04:05;1.70;;;1.70;;
6017;SDS011;3037;51.068;13.780;2023-12-20T07:06:31;1.60;;;1.50;;
6017;SDS011;3037;51.068;13.780;2023-12-20T07:08:56;3.20;;;2.00;;
6017;SDS011;3037;51.068;13.780;2023-12-20T07:11:22;2.17;;;2.07;;
6017;SDS011;3037;51.068;13.780;2023-12-20T07:13:48;2.00;;;1.90;;
6017;SDS011;3037;51.068;13.780;2023-12-20T07:16:14;2.30;;;1.70;;
6017;SDS011;3037;51.068;13.780;2023-12-20T07:18:40;1.73;;;1.63;;
6017;SDS011;3037;51.068;13.780;2023-12-20T07:21:05;2.23;;;2.13;;
6017;SDS011;3037;51.068;13.780;2023-12-20T07:23:32;3.37;;;1.90;;
6017;SDS011;3037;51.068;13.780;2023-12-20T07:25:58;3.23;;;1.87;;
6017;SDS011;3037;51.068;13.780;2023-12-20T07:28:24;1.60;;;1.60;;
6017;SDS011;3037;51.068;13.780;2023-12-20T07:30:49;2.30;;;2.20;;
6017;SDS011;3037;51.068;13.780;2023-12-20T07:33:15;1.57;;;1.47;;
6017;SDS011;3037;51.068;13.780;2023-12-20T07:35:41;2.27;;;2.17;;
6017;SDS011;3037;51.068;13.780;2023-12-20T07:38:06;2.57;;;2.37;;
6017;SDS011;3037;51.068;13.780;2023-12-20T07:40:32;2.77;;;2.67;;
6017;SDS011;3037;51.068;13.780;2023-12-20T07:42:57;2.73;;;2.53;;
6017;SDS011;3037;51.068;13.780;2023-12-20T07:45:23;2.70;;;2.60;;
6017;SDS011;3037;51.068;13.780;2023-12-20T07:47:49;2.20;;;2.10;;
6017;SDS011;3037;51.068;13.780;2023-12-20T07:50:15;2.53;;;2.43;;
6017;SDS011;3037;51.068;13.780;2023-12-20T07:52:40;2.70;;;2.60;;
6017;SDS011;3037;51.068;13.780;2023-12-20T07:55:06;2.27;;;2.17;;
6017;SDS011;3037;51.068;13.780;2023-12-20T07:57:32;2.67;;;2.57;;
6017;SDS011;3037;51.068;13.780;2023-12-20T07:59:57;2.63;;;2.53;;
6017;SDS011;3037;51.068;13.780;2023-12-20T08:02:23;2.27;;;2.17;;
6017;SDS011;3037;51.068;13.780;2023-12-20T08:04:48;2.80;;;2.40;;
6017;SDS011;3037;51.068;13.780;2023-12-20T08:07:14;3.37;;;3.07;;
6017;SDS011;3037;51.068;13.780;2023-12-20T08:09:39;2.83;;;2.63;;
6017;SDS011;3037;51.068;13.780;2023-12-20T08:12:05;2.87;;;2.77;;
6017;SDS011;3037;51.068;13.780;2023-12-20T08:14:31;2.60;;;2.40;;
6017;SDS011;3037;51.068;13.780;2023-12-20T08:16:56;2.37;;;2.23;;
6017;SDS011;3037;51.068;13.780;2023-12-20T08:19:22;2.17;;;2.07;;
6017;SDS011;3037;51.068;13.780;2023-12-20T08:21:47;1.90;;;1.90;;
6017;SDS011;3037;51.068;13.780;2023-12-20T08:24:13;2.43;;;2.23;;
6017;SDS011;3037;51.068;13.780;2023-12-20T08:26:38;2.40;;;1.93;;
6017;SDS011;3037;51.068;13.780;2023-12-20T08:29:04;5.30;;;1.90;;
6017;SDS011;3037;51.068;13.780;2023-12-20T08:31:29;3.80;;;1.60;;
6017;SDS011;3037;51.068;13.780;2023-12-20T08:33:55;1.47;;;1.37;;
6017;SDS011;3037;51.068;13.780;2023-12-20T08:36:21;2.83;;;1.60;;
6017;SDS011;3037;51.068;13.780;2023-12-20T08:38:48;1.77;;;1.67;;
6017;SDS011;3037;51.068;13.780;2023-12-20T08:41:13;1.63;;;1.53;;
6017;SDS011;3037;51.068;13.780;2023-12-20T08:43:40;2.57;;;1.30;;
6017;SDS011;3037;51.068;13.780;2023-12-20T08:46:06;1.90;;;1.80;;
6017;SDS011;3037;51.068;13.780;2023-12-20T08:48:34;2.20;;;2.10;;
6017;SDS011;3037;51.068;13.780;2023-12-20T08:51:00;1.50;;;1.50;;
6017;SDS011;3037;51.068;13.780;2023-12-20T08:53:26;3.13;;;1.27;;
6017;SDS011;3037;51.068;13.780;2023-12-20T08:55:51;2.33;;;1.80;;
6017;SDS011;3037;51.068;13.780;2023-12-20T08:58:17;2.07;;;1.90;;
6017;SDS011;3037;51.068;13.780;2023-12-20T09:00:42;2.23;;;1.70;;
6017;SDS011;3037;51.068;13.780;2023-12-20T09:03:08;4.00;;;1.50;;
6017;SDS011;3037;51.068;13.780;2023-12-20T09:05:34;2.63;;;1.50;;
6017;SDS011;3037;51.068;13.780;2023-12-20T09:08:00;1.30;;;1.30;;
6017;SDS011;3037;51.068;13.780;2023-12-20T09:10:25;3.07;;;2.13;;
6017;SDS011;3037;51.068;13.780;2023-12-20T09:12:51;2.20;;;1.57;;
6017;SDS011;3037;51.068;13.780;2023-12-20T09:15:21;1.80;;;1.50;;
6017;SDS011;3037;51.068;13.780;2023-12-20T09:17:48;4.10;;;1.50;;
6017;SDS011;3037;51.068;13.780;2023-12-20T09:20:13;7.33;;;1.80;;
6017;SDS011;3037;51.068;13.780;2023-12-20T09:22:39;2.60;;;1.57;;
6017;SDS011;3037;51.068;13.780;2023-12-20T09:25:04;1.73;;;1.63;;
6017;SDS011;3037;51.068;13.780;2023-12-20T09:27:30;3.73;;;1.27;;
6017;SDS011;3037;51.068;13.780;2023-12-20T09:29:56;1.00;;;1.00;;
6017;SDS011;3037;51.068;13.780;2023-12-20T09:32:21;1.40;;;1.30;;
6017;SDS011;3037;51.068;13.780;2023-12-20T09:34:47;2.40;;;1.60;;
6017;SDS011;3037;51.068;13.780;2023-12-20T09:37:13;2.07;;;1.03;;
6017;SDS011;3037;51.068;13.780;2023-12-20T09:39:39;1.10;;;1.00;;
6017;SDS011;3037;51.068;13.780;2023-12-20T09:42:05;2.60;;;1.13;;
6017;SDS011;3037;51.068;13.780;2023-12-20T09:44:31;6.27;;;1.20;;
6017;SDS011;3037;51.068;13.780;2023-12-20T09:46:59;3.70;;;1.10;;
6017;SDS011;3037;51.068;13.780;2023-12-20T09:49:28;3.77;;;1.70;;
6017;SDS011;3037;51.068;13.780;2023-12-20T09:51:55;2.10;;;1.10;;
6017;SDS011;3037;51.068;13.780;2023-12-20T09:54:21;3.37;;;1.20;;
6017;SDS011;3037;51.068;13.780;2023-12-20T09:56:47;3.00;;;1.43;;
6017;SDS011;3037;51.068;13.780;2023-12-20T09:59:13;2.40;;;1.67;;
6017;SDS011;3037;51.068;13.780;2023-12-20T10:01:40;2.10;;;1.10;;
6017;SDS011;3037;51.068;13.780;2023-12-20T10:04:06;2.00;;;1.47;;
6017;SDS011;3037;51.068;13.780;2023-12-20T10:06:43;5.50;;;1.90;;
6017;SDS011;3037;51.068;13.780;2023-12-20T10:09:09;2.37;;;1.47;;
6017;SDS011;3037;51.068;13.780;2023-12-20T10:11:36;2.93;;;1.50;;
6017;SDS011;3037;51.068;13.780;2023-12-20T10:14:03;1.63;;;1.50;;
6017;SDS011;3037;51.068;13.780;2023-12-20T10:16:29;1.43;;;1.23;;
6017;SDS011;3037;51.068;13.780;2023-12-20T10:18:55;3.07;;;1.90;;
6017;SDS011;3037;51.068;13.780;2023-12-20T10:21:22;2.40;;;1.50;;
6017;SDS011;3037;51.068;13.780;2023-12-20T10:23:49;1.93;;;1.53;;
6017;SDS011;3037;51.068;13.780;2023-12-20T10:26:25;3.50;;;1.90;;
6017;SDS011;3037;51.068;13.780;2023-12-20T10:28:53;2.03;;;1.40;;
6017;SDS011;3037;51.068;13.780;2023-12-20T10:31:32;2.83;;;1.63;;
6017;SDS011;3037;51.068;13.780;2023-12-20T10:33:59;1.80;;;1.27;;
6017;SDS011;3037;51.068;13.780;2023-12-20T10:36:26;2.10;;;1.53;;
6017;SDS011;3037;51.068;13.780;2023-12-20T10:38:54;2.10;;;1.20;;
6017;SDS011;3037;51.068;13.780;2023-12-20T10:41:26;2.83;;;1.57;;
6017;SDS011;3037;51.068;13.780;2023-12-20T10:44:00;1.93;;;1.40;;
6017;SDS011;3037;51.068;13.780;2023-12-20T10:46:27;2.67;;;1.80;;
6017;SDS011;3037;51.068;13.780;2023-12-20T10:48:56;8.20;;;1.80;;
6017;SDS011;3037;51.068;13.780;2023-12-20T10:51:22;3.53;;;1.80;;
6017;SDS011;3037;51.068;13.780;2023-12-20T10:53:51;3.97;;;1.47;;
6017;SDS011;3037;51.068;13.780;2023-12-20T10:56:18;2.10;;;1.03;;
6017;SDS011;3037;51.068;13.780;2023-12-20T10:58:45;3.43;;;1.47;;
6017;SDS011;3037;51.068;13.780;2023-12-20T11:01:12;9.73;;;1.37;;
6017;SDS011;3037;51.068;13.780;2023-12-20T11:03:41;4.37;;;1.70;;
6017;SDS011;3037;51.068;13.780;2023-12-20T11:08:45;2.10;;;1.23;;
6017;SDS011;3037;51.068;13.780;2023-12-20T11:11:29;2.43;;;1.70;;
6017;SDS011;3037;51.068;13.780;2023-12-20T11:14:05;6.17;;;1.90;;
6017;SDS011;3037;51.068;13.780;2023-12-20T11:16:36;9.20;;;1.60;;
6017;SDS011;3037;51.068;13.780;2023-12-20T11:19:05;1.30;;;1.30;;
6017;SDS011;3037;51.068;13.780;2023-12-20T11:21:31;2.40;;;1.70;;
6017;SDS011;3037;51.068;13.780;2023-12-20T11:23:56;3.63;;;1.90;;
6017;SDS011;3037;51.068;13.780;2023-12-20T11:26:22;4.60;;;1.90;;
6017;SDS011;3037;51.068;13.780;2023-12-20T11:28:53;2.00;;;1.30;;
6017;SDS011;3037;51.068;13.780;2023-12-20T11:31:19;4.97;;;1.80;;
6017;SDS011;3037;51.068;13.780;2023-12-20T11:33:44;4.13;;;1.70;;
6017;SDS011;3037;51.068;13.780;2023-12-20T11:36:18;5.77;;;1.90;;
6017;SDS011;3037;51.068;13.780;2023-12-20T11:38:56;5.77;;;1.80;;
6017;SDS011;3037;51.068;13.780;2023-12-20T11:41:22;2.20;;;1.40;;
6017;SDS011;3037;51.068;13.780;2023-12-20T11:43:49;2.00;;;1.80;;
6017;SDS011;3037;51.068;13.780;2023-12-20T11:46:18;2.13;;;1.80;;
6017;SDS011;3037;51.068;13.780;2023-12-20T11:48:44;2.00;;;1.60;;
6017;SDS011;3037;51.068;13.780;2023-12-20T11:51:10;2.10;;;1.40;;
6017;SDS011;3037;51.068;13.780;2023-12-20T11:53:38;8.07;;;2.13;;
6017;SDS011;3037;51.068;13.780;2023-12-20T11:56:10;4.67;;;2.10;;
6017;SDS011;3037;51.068;13.780;2023-12-20T11:58:36;6.60;;;2.03;;
6017;SDS011;3037;51.068;13.780;2023-12-20T12:01:02;6.03;;;1.80;;
6017;SDS011;3037;51.068;13.780;2023-12-20T12:03:27;1.90;;;1.80;;
6017;SDS011;3037;51.068;13.780;2023-12-20T12:05:53;9.23;;;2.20;;
6017;SDS011;3037;51.068;13.780;2023-12-20T12:08:19;1.73;;;1.63;;
6017;SDS011;3037;51.068;13.780;2023-12-20T12:10:44;1.97;;;1.87;;
6017;SDS011;3037;51.068;13.780;2023-12-20T12:13:10;4.43;;;1.97;;
6017;SDS011;3037;51.068;13.780;2023-12-20T12:15:36;4.97;;;1.80;;
6017;SDS011;3037;51.068;13.780;2023-12-20T12:18:03;5.83;;;1.57;;
6017;SDS011;3037;51.068;13.780;2023-12-20T12:20:30;2.80;;;1.90;;
6017;SDS011;3037;51.068;13.780;2023-12-20T12:22:59;5.57;;;2.03;;
6017;SDS011;3037;51.068;13.780;2023-12-20T12:25:29;5.50;;;2.30;;
6017;SDS011;3037;51.068;13.780;2023-12-20T12:27:56;3.97;;;1.87;;
6017;SDS011;3037;51.068;13.780;2023-12-20T12:30:25;2.20;;;1.33;;
6017;SDS011;3037;51.068;13.780;2023-12-20T12:32:51;2.63;;;1.60;;
6017;SDS011;3037;51.068;13.780;2023-12-20T12:35:17;5.20;;;2.10;;
6017;SDS011;3037;51.068;13.780;2023-12-20T12:37:43;3.57;;;1.67;;
6017;SDS011;3037;51.068;13.780;2023-12-20T12:40:10;5.00;;;1.20;;
6017;SDS011;3037;51.068;13.780;2023-12-20T12:42:39;6.70;;;1.80;;
6017;SDS011;3037;51.068;13.780;2023-12-20T12:45:06;1.63;;;1.53;;
6017;SDS011;3037;51.068;13.780;2023-12-20T12:47:32;2.63;;;1.73;;
6017;SDS011;3037;51.068;13.780;2023-12-20T12:49:58;2.47;;;1.77;;
6017;SDS011;3037;51.068;13.780;2023-12-20T12:52:24;2.03;;;1.63;;
6017;SDS011;3037;51.068;13.780;2023-12-20T12:54:51;1.80;;;1.50;;
6017;SDS011;3037;51.068;13.780;2023-12-20T12:57:17;2.20;;;2.00;;
6017;SDS011;3037;51.068;13.780;2023-12-20T12:59:43;3.70;;;1.53;;
6017;SDS011;3037;51.068;13.780;2023-12-20T13:02:10;5.50;;;1.77;;
6017;SDS011;3037;51.068;13.780;2023-12-20T13:04:36;1.60;;;1.50;;
6017;SDS011;3037;51.068;13.780;2023-12-20T13:07:02;6.70;;;1.90;;
6017;SDS011;3037;51.068;13.780;2023-12-20T13:09:27;5.60;;;1.50;;
6017;SDS011;3037;51.068;13.780;2023-12-20T13:11:53;2.83;;;1.53;;
6017;SDS011;3037;51.068;13.780;2023-12-20T13:14:18;1.97;;;1.70;;
6017;SDS011;3037;51.068;13.780;2023-12-20T13:16:44;4.70;;;2.10;;
6017;SDS011;3037;51.068;13.780;2023-12-20T13:19:10;4.93;;;1.97;;
6017;SDS011;3037;51.068;13.780;2023-12-20T13:21:36;4.00;;;1.77;;
6017;SDS011;3037;51.068;13.780;2023-12-20T13:24:01;5.00;;;1.87;;
6017;SDS011;3037;51.068;13.780;2023-12-20T13:26:28;5.67;;;1.60;;
6017;SDS011;3037;51.068;13.780;2023-12-20T13:28:53;4.37;;;1.70;;
6017;SDS011;3037;51.068;13.780;2023-12-20T13:31:19;3.50;;;1.87;;
6017;SDS011;3037;51.068;13.780;2023-12-20T13:33:45;8.17;;;2.07;;
6017;SDS011;3037;51.068;13.780;2023-12-20T13:36:10;2.97;;;2.07;;
6017;SDS011;3037;51.068;13.780;2023-12-20T13:38:37;2.00;;;1.73;;
6017;SDS011;3037;51.068;13.780;2023-12-20T13:41:02;5.47;;;1.80;;
6017;SDS011;3037;51.068;13.780;2023-12-20T13:43:29;6.53;;;1.50;;
6017;SDS011;3037;51.068;13.780;2023-12-20T13:45:56;1.60;;;1.50;;
6017;SDS011;3037;51.068;13.780;2023-12-20T13:48:22;2.50;;;1.27;;
6017;SDS011;3037;51.068;13.780;2023-12-20T13:50:47;4.37;;;1.50;;
6017;SDS011;3037;51.068;13.780;2023-12-20T13:53:13;4.50;;;1.57;;
6017;SDS011;3037;51.068;13.780;2023-12-20T13:55:39;4.13;;;2.30;;
6017;SDS011;3037;51.068;13.780;2023-12-20T13:58:05;6.40;;;1.70;;
6017;SDS011;3037;51.068;13.780;2023-12-20T14:00:30;4.17;;;1.73;;
6017;SDS011;3037;51.068;13.780;2023-12-20T14:02:56;1.47;;;1.00;;
6017;SDS011;3037;51.068;13.780;2023-12-20T14:05:21;3.13;;;1.30;;
6017;SDS011;3037;51.068;13.780;2023-12-20T14:07:48;4.87;;;1.40;;
6017;SDS011;3037;51.068;13.780;2023-12-20T14:10:14;5.73;;;1.80;;
6017;SDS011;3037;51.068;13.780;2023-12-20T14:12:39;2.20;;;1.20;;
6017;SDS011;3037;51.068;13.780;2023-12-20T14:15:05;5.67;;;1.80;;
6017;SDS011;3037;51.068;13.780;2023-12-20T14:17:36;2.10;;;1.40;;
6017;SDS011;3037;51.068;13.780;2023-12-20T14:20:03;2.43;;;1.57;;
6017;SDS011;3037;51.068;13.780;2023-12-20T14:22:31;5.27;;;2.50;;
6017;SDS011;3037;51.068;13.780;2023-12-20T14:24:56;4.47;;;1.10;;
6017;SDS011;3037;51.068;13.780;2023-12-20T14:27:22;2.03;;;1.40;;
6017;SDS011;3037;51.068;13.780;2023-12-20T14:29:49;3.90;;;2.07;;
6017;SDS011;3037;51.068;13.780;2023-12-20T14:32:15;1.80;;;1.50;;
6017;SDS011;3037;51.068;13.780;2023-12-20T14:34:41;2.77;;;1.87;;
6017;SDS011;3037;51.068;13.780;2023-12-20T14:37:07;2.40;;;1.30;;
6017;SDS011;3037;51.068;13.780;2023-12-20T14:39:32;3.17;;;1.70;;
6017;SDS011;3037;51.068;13.780;2023-12-20T14:41:58;1.90;;;1.60;;
6017;SDS011;3037;51.068;13.780;2023-12-20T14:44:23;4.77;;;2.00;;
6017;SDS011;3037;51.068;13.780;2023-12-20T14:46:50;4.47;;;1.90;;
6017;SDS011;3037;51.068;13.780;2023-12-20T14:49:15;2.20;;;1.10;;
6017;SDS011;3037;51.068;13.780;2023-12-20T14:51:43;5.50;;;1.50;;
6017;SDS011;3037;51.068;13.780;2023-12-20T14:54:09;3.43;;;1.67;;
6017;SDS011;3037;51.068;13.780;2023-12-20T14:56:35;1.53;;;1.43;;